createdAt,value
2022-12-28T00:00:31.417Z,77.40
2022-12-28T00:03:16.900Z,77.00
2022-12-28T00:06:03.231Z,76.30
2022-12-28T00:08:49.397Z,75.90
2022-12-28T00:11:37.321Z,75.50
2022-12-28T00:14:22.569Z,75.10
2022-12-28T00:17:08.018Z,75.00
2022-12-28T00:19:55.862Z,74.60
2022-12-28T00:22:41.290Z,74.20
2022-12-28T00:25:31.618Z,74.20
2022-12-28T00:28:17.679Z,73.90
2022-12-28T00:31:04.165Z,73.70
2022-12-28T00:33:50.222Z,73.70
2022-12-28T00:37:10.259Z,73.60
2022-12-28T00:39:44.903Z,73.50
2022-12-28T00:42:33.237Z,73.60
2022-12-28T00:45:23.279Z,73.40
2022-12-28T00:48:09.092Z,73.10
2022-12-28T00:51:02.888Z,72.90
2022-12-28T00:53:49.235Z,72.50
2022-12-28T00:56:34.620Z,72.00
2022-12-28T00:59:20.283Z,72.10
2022-12-28T01:02:08.215Z,72.00
2022-12-28T01:04:53.850Z,71.70
2022-12-28T01:07:39.483Z,71.40
2022-12-28T01:10:25.189Z,71.30
2022-12-28T01:13:10.531Z,71.20
2022-12-28T01:15:56.223Z,70.90
2022-12-28T01:18:42.202Z,70.70
2022-12-28T01:21:35.145Z,70.20
2022-12-28T01:24:21.136Z,70.00
2022-12-28T01:27:06.723Z,69.70
2022-12-28T01:29:52.153Z,70.00
2022-12-28T01:32:37.562Z,69.80
2022-12-28T01:35:22.893Z,69.80
2022-12-28T01:38:10.284Z,69.70
2022-12-28T01:40:57.581Z,69.60
2022-12-28T01:44:07.612Z,69.80
2022-12-28T01:47:04.280Z,69.90
2022-12-28T01:50:07.236Z,69.80
2022-12-28T01:52:57.736Z,69.40
2022-12-28T01:55:44.043Z,69.60
2022-12-28T01:58:32.153Z,69.30
2022-12-28T02:01:17.768Z,69.60
2022-12-28T02:04:06.311Z,70.00
2022-12-28T02:06:54.453Z,70.50
2022-12-28T02:09:44.127Z,71.00
2022-12-28T02:12:49.964Z,71.50
2022-12-28T02:15:40.472Z,71.90
2022-12-28T02:18:26.798Z,72.20
2022-12-28T02:21:26.603Z,72.70
2022-12-28T02:24:30.633Z,72.80
2022-12-28T02:27:31.035Z,73.10
2022-12-28T02:30:17.506Z,73.40
2022-12-28T02:33:11.667Z,73.40
2022-12-28T02:36:13.000Z,73.50
2022-12-28T02:39:17.141Z,73.50
2022-12-28T02:42:05.299Z,73.80
2022-12-28T02:45:09.163Z,73.80
2022-12-28T02:48:13.353Z,73.90
2022-12-28T02:51:22.498Z,74.10
2022-12-28T02:55:05.683Z,74.20
2022-12-28T02:57:56.996Z,74.00
2022-12-28T03:01:23.654Z,74.40
2022-12-28T03:04:18.159Z,74.40
2022-12-28T03:08:03.061Z,74.40
2022-12-28T03:11:06.082Z,74.80
2022-12-28T03:14:08.221Z,74.90
2022-12-28T03:17:17.442Z,74.90
2022-12-28T03:20:28.103Z,75.10
2022-12-28T03:23:35.120Z,75.20
2022-12-28T03:26:42.104Z,75.40
2022-12-28T03:29:48.583Z,75.30
2022-12-28T03:32:34.567Z,75.10
2022-12-28T03:35:23.532Z,75.20
2022-12-28T03:38:12.816Z,75.00
2022-12-28T03:41:12.793Z,75.20
2022-12-28T03:44:05.021Z,75.30
2022-12-28T03:47:01.176Z,75.40
2022-12-28T03:49:49.317Z,75.40
2022-12-28T03:52:34.863Z,75.50
2022-12-28T03:55:20.820Z,75.60
2022-12-28T03:58:06.758Z,75.50
2022-12-28T04:00:51.967Z,75.50
2022-12-28T04:03:39.969Z,75.50
2022-12-28T04:06:27.450Z,75.80
2022-12-28T04:09:12.713Z,75.90
2022-12-28T04:11:58.696Z,76.00
2022-12-28T04:14:44.169Z,75.90
2022-12-28T04:17:32.303Z,76.00
2022-12-28T04:20:17.524Z,76.10
2022-12-28T04:23:05.095Z,76.10
2022-12-28T04:26:12.017Z,76.20
2022-12-28T04:29:02.168Z,76.30
2022-12-28T04:31:50.073Z,76.30
2022-12-28T04:34:39.916Z,76.60
2022-12-28T04:37:28.887Z,76.30
2022-12-28T04:40:14.829Z,76.30
2022-12-28T04:43:01.079Z,76.10
2022-12-28T04:46:02.408Z,75.90
2022-12-28T04:48:47.673Z,75.90
2022-12-28T04:51:33.774Z,75.80
2022-12-28T04:54:21.419Z,75.90
2022-12-28T04:57:07.037Z,75.70
2022-12-28T04:59:54.558Z,75.50
2022-12-28T05:02:42.046Z,75.40
2022-12-28T05:05:32.708Z,75.70
2022-12-28T05:08:18.112Z,75.30
2022-12-28T05:11:06.295Z,75.20
2022-12-28T05:13:51.692Z,75.20
2022-12-28T05:16:39.563Z,75.00
2022-12-28T05:19:27.965Z,74.80
2022-12-28T05:22:17.094Z,74.80
2022-12-28T05:25:04.714Z,74.30
2022-12-28T05:27:50.303Z,74.20
2022-12-28T05:30:38.501Z,73.90
2022-12-28T05:33:23.917Z,73.60
2022-12-28T05:36:15.042Z,73.40
2022-12-28T05:39:00.890Z,73.30
2022-12-28T05:41:48.760Z,73.30
2022-12-28T05:44:34.047Z,73.10
2022-12-28T05:47:19.639Z,73.10
2022-12-28T05:50:06.307Z,72.70
2022-12-28T05:52:51.884Z,72.40
2022-12-28T05:55:37.545Z,72.50
2022-12-28T05:58:23.086Z,72.30
2022-12-28T06:01:11.406Z,72.10
2022-12-28T06:04:06.387Z,72.00
2022-12-28T06:06:51.642Z,71.80
2022-12-28T06:09:39.441Z,71.70
2022-12-28T06:12:24.783Z,71.70
2022-12-28T06:15:11.035Z,71.40
2022-12-28T06:17:56.342Z,71.30
2022-12-28T06:20:46.706Z,71.20
2022-12-28T06:23:32.125Z,71.20
2022-12-28T06:26:20.661Z,70.80
2022-12-28T06:29:06.473Z,70.60
2022-12-28T06:31:53.908Z,70.80
2022-12-28T06:34:39.774Z,70.50
2022-12-28T06:37:25.489Z,70.40
2022-12-28T06:40:11.519Z,70.30
2022-12-28T06:42:57.189Z,70.10
2022-12-28T06:45:42.662Z,70.00
2022-12-28T06:48:32.293Z,70.30
2022-12-28T06:51:22.701Z,70.60
2022-12-28T06:54:09.352Z,71.40
2022-12-28T06:56:57.055Z,71.90
2022-12-28T06:59:42.887Z,72.70
2022-12-28T07:02:30.802Z,73.30
2022-12-28T07:05:16.738Z,74.00
2022-12-28T07:08:05.216Z,74.20
2022-12-28T07:10:56.892Z,74.30
2022-12-28T07:13:44.722Z,74.90
2022-12-28T07:19:15.757Z,76.00
2022-12-28T07:22:04.593Z,76.60
2022-12-28T07:24:52.198Z,76.50
2022-12-28T07:27:37.511Z,76.70
2022-12-28T07:30:22.852Z,76.90
2022-12-28T07:33:08.537Z,76.80
2022-12-28T07:35:54.201Z,76.90
2022-12-28T07:38:42.323Z,76.80
2022-12-28T07:41:36.203Z,76.80
2022-12-28T07:44:21.623Z,76.50
2022-12-28T07:47:07.738Z,76.20
2022-12-28T07:49:53.366Z,76.30
2022-12-28T07:52:39.346Z,76.20
2022-12-28T07:55:24.990Z,76.30
2022-12-28T07:58:12.387Z,76.40
2022-12-28T08:01:08.349Z,76.30
2022-12-28T08:04:00.333Z,76.30
2022-12-28T08:06:48.763Z,76.60
2022-12-28T08:09:33.933Z,76.60
2022-12-28T08:12:21.717Z,76.40
2022-12-28T08:15:10.125Z,76.60
2022-12-28T08:18:00.980Z,76.90
2022-12-28T08:20:49.423Z,76.80
2022-12-28T08:23:34.839Z,77.00
2022-12-28T08:26:21.877Z,76.90
2022-12-28T08:29:13.543Z,77.10
2022-12-28T08:32:01.518Z,77.20
2022-12-28T08:34:46.725Z,76.90
2022-12-28T08:37:32.202Z,77.00
2022-12-28T08:40:17.786Z,77.00
2022-12-28T08:43:03.571Z,76.80
2022-12-28T08:46:09.729Z,76.10
2022-12-28T08:48:57.305Z,75.30
2022-12-28T08:51:43.032Z,75.30
2022-12-28T08:54:28.926Z,74.60
2022-12-28T08:57:14.246Z,74.10
2022-12-28T08:59:59.689Z,73.30
2022-12-28T09:02:45.396Z,73.10
2022-12-28T09:05:39.626Z,72.70
2022-12-28T09:08:25.740Z,72.70
2022-12-28T09:11:14.428Z,71.90
2022-12-28T09:14:00.037Z,72.90
2022-12-28T09:16:49.843Z,72.00
2022-12-28T09:19:35.184Z,71.60
2022-12-28T09:22:20.960Z,73.30
2022-12-28T09:25:09.241Z,73.20
2022-12-28T09:27:59.339Z,72.90
2022-12-28T09:30:45.503Z,72.30
2022-12-28T09:34:33.784Z,72.00
2022-12-28T09:36:57.051Z,71.80
2022-12-28T09:39:42.598Z,72.40
2022-12-28T09:42:30.259Z,72.40
2022-12-28T09:45:18.658Z,72.00
2022-12-28T09:48:08.690Z,71.20
2022-12-28T09:50:55.496Z,71.00
2022-12-28T09:53:41.210Z,71.10
2022-12-28T09:56:45.687Z,70.90
2022-12-28T09:59:34.317Z,71.10
2022-12-28T10:02:33.536Z,70.90
2022-12-28T10:05:21.354Z,70.80
2022-12-28T10:08:10.302Z,70.20
2022-12-28T10:11:00.760Z,70.40
2022-12-28T10:13:56.570Z,70.10
2022-12-28T10:16:48.356Z,69.70
2022-12-28T10:19:37.019Z,69.50
2022-12-28T10:22:26.607Z,69.90
2022-12-28T10:25:18.268Z,69.60
2022-12-28T10:28:10.096Z,69.10
2022-12-28T10:31:12.984Z,70.20
2022-12-28T10:34:00.041Z,70.40
2022-12-28T10:36:58.494Z,69.70
2022-12-28T10:39:54.682Z,70.30
2022-12-28T10:42:50.829Z,71.10
2022-12-28T10:45:42.411Z,72.40
2022-12-28T10:48:34.834Z,73.20
2022-12-28T10:51:28.172Z,73.20
2022-12-28T10:54:28.157Z,73.30
2022-12-28T10:57:21.420Z,72.90
2022-12-28T11:00:19.381Z,73.40
2022-12-28T11:03:18.942Z,72.90
2022-12-28T11:06:26.325Z,73.20
2022-12-28T11:09:17.199Z,72.50
2022-12-28T11:12:29.068Z,72.30
2022-12-28T11:15:20.506Z,72.20
2022-12-28T11:18:17.993Z,71.40
2022-12-28T11:21:03.554Z,71.70
2022-12-28T11:23:50.540Z,71.50
2022-12-28T11:26:36.335Z,71.20
2022-12-28T11:29:21.596Z,71.70
2022-12-28T11:32:17.948Z,71.60
2022-12-28T11:35:04.173Z,71.50
2022-12-28T11:37:55.358Z,71.60
2022-12-28T11:40:44.097Z,71.70
2022-12-28T11:43:29.570Z,71.50
2022-12-28T11:46:21.199Z,70.80
2022-12-28T11:49:31.836Z,71.10
2022-12-28T11:52:17.741Z,71.60
2022-12-28T11:55:26.936Z,71.80
2022-12-28T11:58:30.804Z,72.30
2022-12-28T12:01:40.962Z,72.30
2022-12-28T12:04:34.693Z,71.80
2022-12-28T12:07:31.208Z,71.80
2022-12-28T12:10:29.978Z,71.80
2022-12-28T12:13:27.792Z,71.90
2022-12-28T12:16:24.520Z,71.40
2022-12-28T12:19:23.686Z,71.80
2022-12-28T12:22:28.784Z,71.80
2022-12-28T12:25:24.552Z,71.80
2022-12-28T12:28:28.169Z,71.80
2022-12-28T12:31:23.324Z,71.20
2022-12-28T12:34:40.130Z,70.80
2022-12-28T12:37:44.534Z,70.30
2022-12-28T12:40:45.621Z,69.60
2022-12-28T12:43:40.235Z,68.90
2022-12-28T12:46:43.461Z,69.30
2022-12-28T12:49:43.841Z,69.00
2022-12-28T12:52:32.429Z,69.00
2022-12-28T12:55:42.318Z,68.60
2022-12-28T12:59:04.484Z,68.30
2022-12-28T13:02:11.666Z,67.20
2022-12-28T13:04:57.881Z,66.90
2022-12-28T13:07:45.685Z,66.90
2022-12-28T13:10:37.866Z,65.30
2022-12-28T13:13:45.171Z,65.10
2022-12-28T13:16:32.622Z,64.30
2022-12-28T13:19:24.493Z,65.90
2022-12-28T13:22:30.560Z,66.30
2022-12-28T13:25:29.196Z,67.60
2022-12-28T13:28:35.653Z,68.80
2022-12-28T13:31:36.093Z,69.50
2022-12-28T13:34:35.016Z,69.90
2022-12-28T13:37:22.198Z,70.50
2022-12-28T13:40:19.884Z,70.70
2022-12-28T13:43:12.077Z,70.80
2022-12-28T13:46:02.630Z,70.90
2022-12-28T13:48:57.896Z,64.10
2022-12-28T13:51:48.430Z,60.40
2022-12-28T13:54:42.217Z,61.50
2022-12-28T13:57:49.149Z,63.90
2022-12-28T14:00:38.421Z,66.30
2022-12-28T14:03:25.034Z,68.10
2022-12-28T14:06:13.697Z,68.90
2022-12-28T14:09:05.596Z,70.20
2022-12-28T14:11:51.847Z,71.40
2022-12-28T14:14:38.074Z,71.90
2022-12-28T14:17:24.359Z,72.50
2022-12-28T14:20:13.347Z,73.00
2022-12-28T14:23:31.993Z,73.20
2022-12-28T14:26:22.656Z,73.40
2022-12-28T14:29:20.423Z,74.20
2022-12-28T14:32:13.892Z,74.30
2022-12-28T14:35:01.681Z,74.60
2022-12-28T14:37:53.431Z,74.70
2022-12-28T14:40:41.544Z,75.00
2022-12-28T14:43:32.291Z,75.30
2022-12-28T14:46:31.533Z,75.30
2022-12-28T14:49:30.238Z,74.80
2022-12-28T14:52:16.483Z,75.00
2022-12-28T14:55:27.483Z,75.20
2022-12-28T14:58:23.180Z,75.50
2022-12-28T15:01:10.305Z,75.70
2022-12-28T15:04:06.327Z,75.70
2022-12-28T15:06:52.955Z,75.40
2022-12-28T15:09:38.708Z,75.10
2022-12-28T15:12:24.517Z,75.10
2022-12-28T15:15:11.081Z,75.40
2022-12-28T15:17:58.717Z,75.80
2022-12-28T15:20:44.416Z,76.30
2022-12-28T15:23:29.837Z,76.50
2022-12-28T15:26:15.663Z,76.60
2022-12-28T15:29:05.348Z,76.90
2022-12-28T15:31:51.313Z,77.00
2022-12-28T15:34:36.992Z,77.30
2022-12-28T15:37:22.807Z,77.40
2022-12-28T15:40:09.644Z,77.60
2022-12-28T15:42:57.578Z,77.60
2022-12-28T15:45:45.622Z,77.70
2022-12-28T15:48:31.458Z,78.00
2022-12-28T15:51:21.403Z,78.40
2022-12-28T15:54:07.557Z,78.40
2022-12-28T15:56:55.110Z,78.40
2022-12-28T15:59:40.383Z,77.90
2022-12-28T16:02:29.020Z,77.80
2022-12-28T16:05:14.801Z,77.40
2022-12-28T16:08:01.254Z,77.10
2022-12-28T16:10:47.147Z,76.70
2022-12-28T16:13:32.602Z,76.60
2022-12-28T16:16:18.887Z,75.90
2022-12-28T16:19:12.595Z,75.90
2022-12-28T16:22:01.026Z,76.20
2022-12-28T16:24:47.167Z,75.60
2022-12-28T16:27:32.961Z,75.60
2022-12-28T16:30:19.328Z,75.90
2022-12-28T16:33:04.841Z,75.70
2022-12-28T16:35:59.272Z,75.40
2022-12-28T16:38:46.601Z,74.60
2022-12-28T16:41:36.728Z,74.30
2022-12-28T16:44:24.682Z,73.80
2022-12-28T16:47:11.420Z,73.30
2022-12-28T16:49:57.088Z,72.70
2022-12-28T16:52:45.147Z,72.10
2022-12-28T16:55:33.544Z,72.00
2022-12-28T16:58:19.460Z,72.00
2022-12-28T17:01:11.970Z,72.00
2022-12-28T17:04:03.663Z,71.30
2022-12-28T17:06:51.705Z,71.20
2022-12-28T17:09:37.626Z,70.90
2022-12-28T17:12:23.197Z,70.90
2022-12-28T17:15:09.190Z,70.70
2022-12-28T17:17:54.557Z,70.70
2022-12-28T17:20:40.872Z,70.80
2022-12-28T17:23:26.636Z,71.00
2022-12-28T17:26:14.888Z,72.20
2022-12-28T17:29:00.325Z,72.90
2022-12-28T17:31:46.062Z,75.20
2022-12-28T17:34:32.030Z,75.80
2022-12-28T17:37:18.307Z,76.10
2022-12-28T17:40:04.309Z,76.90
2022-12-28T17:42:49.905Z,76.30
2022-12-28T17:45:36.753Z,76.50
2022-12-28T17:48:27.342Z,75.90
2022-12-28T17:51:13.374Z,75.70
2022-12-28T17:53:58.722Z,75.20
2022-12-28T17:56:44.622Z,75.30
2022-12-28T17:59:32.137Z,74.80
2022-12-28T18:02:19.806Z,74.70
2022-12-28T18:05:05.908Z,74.40
2022-12-28T18:07:51.488Z,74.80
2022-12-28T18:10:37.593Z,73.70
2022-12-28T18:13:23.704Z,73.30
2022-12-28T18:16:13.515Z,73.10
2022-12-28T18:18:59.362Z,73.20
2022-12-28T18:21:45.299Z,73.70
2022-12-28T18:24:30.968Z,74.80
2022-12-28T18:27:16.768Z,75.50
2022-12-28T18:30:02.421Z,75.40
2022-12-28T18:32:47.761Z,74.60
2022-12-28T18:35:33.278Z,74.40
2022-12-28T18:38:18.790Z,74.00
2022-12-28T18:41:07.296Z,73.50
2022-12-28T18:43:53.215Z,73.00
2022-12-28T18:46:41.504Z,72.10
2022-12-28T18:49:29.196Z,72.00
2022-12-28T18:52:15.468Z,72.10
2022-12-28T18:55:00.830Z,72.10
2022-12-28T18:57:49.394Z,72.30
2022-12-28T19:00:34.866Z,72.20
2022-12-28T19:03:24.188Z,72.00
2022-12-28T19:06:12.702Z,72.00
2022-12-28T19:09:00.657Z,72.00
2022-12-28T19:11:46.685Z,72.00
2022-12-28T19:14:35.057Z,72.70
2022-12-28T19:17:23.655Z,73.50
2022-12-28T19:20:09.651Z,74.30
2022-12-28T19:22:55.506Z,74.00
2022-12-28T19:25:45.800Z,74.20
2022-12-28T19:28:31.712Z,75.10
2022-12-28T19:31:19.940Z,75.10
2022-12-28T19:34:05.738Z,75.70
2022-12-28T19:36:51.054Z,76.80
2022-12-28T19:39:36.531Z,76.80
2022-12-28T19:42:24.738Z,76.90
2022-12-28T19:45:11.860Z,77.10
2022-12-28T19:47:57.199Z,77.60
2022-12-28T19:50:42.861Z,78.20
2022-12-28T19:53:31.024Z,79.10
2022-12-28T19:56:19.924Z,78.70
2022-12-28T19:59:07.216Z,79.30
2022-12-28T20:01:53.760Z,81.10
2022-12-28T20:04:39.151Z,82.30
2022-12-28T20:07:26.924Z,82.90
2022-12-28T20:10:12.315Z,83.10
2022-12-28T20:12:57.939Z,83.50
2022-12-28T20:15:43.700Z,83.40
2022-12-28T20:18:29.247Z,83.60
2022-12-28T20:21:20.024Z,83.60
2022-12-28T20:24:06.991Z,83.80
2022-12-28T20:27:01.512Z,83.70
2022-12-28T20:29:48.140Z,83.80
2022-12-28T20:32:37.302Z,84.00
2022-12-28T20:35:26.562Z,84.00
2022-12-28T20:38:13.308Z,84.10
2022-12-28T20:41:10.518Z,84.10
2022-12-28T20:43:57.866Z,84.10
2022-12-28T20:46:46.305Z,84.00
2022-12-28T20:49:32.831Z,84.10
2022-12-28T20:52:18.797Z,84.10
2022-12-28T20:55:04.312Z,83.80
2022-12-28T20:57:53.439Z,83.90
2022-12-28T21:00:41.828Z,83.50
2022-12-28T21:03:27.749Z,83.30
2022-12-28T21:06:15.813Z,83.30
2022-12-28T21:09:01.518Z,82.80
2022-12-28T21:11:47.052Z,82.10
2022-12-28T21:14:35.186Z,81.70
2022-12-28T21:17:20.717Z,81.50
2022-12-28T21:20:06.948Z,81.40
2022-12-28T21:22:54.720Z,81.00
2022-12-28T21:25:40.051Z,80.30
2022-12-28T21:28:25.685Z,80.20
2022-12-28T21:31:11.657Z,79.90
2022-12-28T21:33:59.493Z,79.80
2022-12-28T21:36:45.273Z,79.90
2022-12-28T21:39:33.228Z,79.50
2022-12-28T21:42:18.582Z,79.50
2022-12-28T21:45:04.669Z,80.10
2022-12-28T21:47:50.364Z,79.50
2022-12-28T21:50:36.556Z,79.00
2022-12-28T21:53:22.237Z,79.20
2022-12-28T21:56:15.574Z,79.20
2022-12-28T21:59:05.865Z,79.20
2022-12-28T22:02:11.011Z,79.10
2022-12-28T22:05:19.706Z,79.10
2022-12-28T22:08:24.493Z,78.90
2022-12-28T22:11:32.164Z,79.00
2022-12-28T22:14:20.077Z,78.30
2022-12-28T22:17:14.052Z,78.10
2022-12-28T22:19:59.904Z,77.90
2022-12-28T22:22:45.463Z,77.60
2022-12-28T22:25:31.423Z,77.70
2022-12-28T22:28:17.082Z,77.10
2022-12-28T22:31:06.785Z,76.90
2022-12-28T22:33:55.709Z,76.30
2022-12-28T22:36:41.228Z,76.20
2022-12-28T22:39:28.930Z,75.70
2022-12-28T22:42:15.582Z,75.60
2022-12-28T22:45:01.250Z,75.40
2022-12-28T22:47:47.619Z,75.30
2022-12-28T22:50:35.788Z,74.80
2022-12-28T22:53:25.187Z,75.30
2022-12-28T22:56:15.822Z,74.10
2022-12-28T22:59:05.179Z,73.70
2022-12-28T23:01:54.940Z,74.00
2022-12-28T23:04:41.083Z,74.20
2022-12-28T23:07:26.981Z,74.40
2022-12-28T23:10:12.449Z,74.00
2022-12-28T23:12:58.074Z,74.20
2022-12-28T23:15:43.568Z,75.10
2022-12-28T23:18:48.545Z,75.00
2022-12-28T23:21:52.557Z,75.80
2022-12-28T23:25:00.056Z,75.90
2022-12-28T23:27:46.472Z,75.30
2022-12-28T23:30:32.431Z,75.40
2022-12-28T23:33:21.284Z,76.00
2022-12-28T23:36:09.698Z,75.00
2022-12-28T23:38:57.586Z,75.40
2022-12-28T23:41:48.406Z,75.70
2022-12-28T23:44:36.283Z,75.70
2022-12-28T23:47:24.544Z,75.90
2022-12-28T23:50:13.262Z,76.30
2022-12-28T23:52:58.725Z,76.60
2022-12-28T23:55:44.601Z,76.90
2022-12-28T23:58:32.457Z,76.60
